createdAt,value
2022-10-18T00:02:31.491Z,4.05
2022-10-18T00:05:28.455Z,5.13
2022-10-18T00:08:25.902Z,3.95
2022-10-18T00:11:22.788Z,4.07
2022-10-18T00:14:19.914Z,4.03
2022-10-18T00:17:17.075Z,4.82
2022-10-18T00:20:14.185Z,4.50
2022-10-18T00:23:11.088Z,3.80
2022-10-18T00:26:13.688Z,4.00
2022-10-18T00:29:15.902Z,3.92
2022-10-18T00:32:12.785Z,4.43
2022-10-18T00:35:09.756Z,6.25
2022-10-18T00:38:06.603Z,4.65
2022-10-18T00:41:04.510Z,4.60
2022-10-18T00:44:26.848Z,4.70
2022-10-18T00:47:23.684Z,4.55
2022-10-18T00:50:22.876Z,4.90
2022-10-18T00:53:22.777Z,4.85
2022-10-18T00:56:19.958Z,4.97
2022-10-18T00:59:19.383Z,4.40
2022-10-18T01:02:18.392Z,4.28
2022-10-18T01:05:18.164Z,4.47
2022-10-18T01:08:33.334Z,3.92
2022-10-18T01:12:19.657Z,3.92
2022-10-18T01:15:50.100Z,4.50
2022-10-18T01:19:33.697Z,4.35
2022-10-18T01:22:44.576Z,4.20
2022-10-18T01:25:57.936Z,3.90
2022-10-18T01:29:05.411Z,3.67
2022-10-18T01:32:21.132Z,3.80
2022-10-18T01:35:29.451Z,4.10
2022-10-18T01:38:29.713Z,3.80
2022-10-18T01:41:28.253Z,4.38
2022-10-18T01:44:29.415Z,4.38
2022-10-18T01:47:28.150Z,4.57
2022-10-18T01:50:34.508Z,4.43
2022-10-18T01:53:34.864Z,3.90
2022-10-18T01:56:57.363Z,4.30
2022-10-18T02:00:11.817Z,3.63
2022-10-18T02:03:23.007Z,4.05
2022-10-18T02:06:23.771Z,4.60
2022-10-18T02:09:40.345Z,4.18
2022-10-18T02:12:42.910Z,4.47
2022-10-18T02:15:44.547Z,4.80
2022-10-18T02:18:49.361Z,4.70
2022-10-18T02:21:48.482Z,4.45
2022-10-18T02:24:51.387Z,4.05
2022-10-18T02:27:48.348Z,4.35
2022-10-18T02:31:05.968Z,4.03
2022-10-18T02:34:23.952Z,4.80
2022-10-18T02:37:21.072Z,4.43
2022-10-18T02:40:18.593Z,3.88
2022-10-18T02:43:15.443Z,4.60
2022-10-18T02:46:12.282Z,4.55
2022-10-18T02:49:09.175Z,4.72
2022-10-18T02:52:06.060Z,5.10
2022-10-18T02:55:03.798Z,4.43
2022-10-18T02:58:00.704Z,4.78
2022-10-18T03:00:57.515Z,4.82
2022-10-18T03:03:54.355Z,5.32
2022-10-18T03:06:51.223Z,4.40
2022-10-18T03:09:48.055Z,5.20
2022-10-18T03:12:44.991Z,5.80
2022-10-18T03:15:42.315Z,4.70
2022-10-18T03:18:39.144Z,5.07
2022-10-18T03:21:36.022Z,4.88
2022-10-18T03:24:32.862Z,4.28
2022-10-18T03:27:29.951Z,3.97
2022-10-18T03:30:27.252Z,4.60
2022-10-18T03:33:24.074Z,5.00
2022-10-18T03:36:20.906Z,5.30
2022-10-18T03:39:17.766Z,5.65
2022-10-18T03:42:14.598Z,5.90
2022-10-18T03:45:11.576Z,6.05
2022-10-18T03:48:08.460Z,8.43
2022-10-18T03:51:05.723Z,8.93
2022-10-18T03:54:02.690Z,9.15
2022-10-18T03:56:59.581Z,9.32
2022-10-18T03:59:56.474Z,9.23
2022-10-18T04:02:55.761Z,9.43
2022-10-18T04:05:53.021Z,8.73
2022-10-18T04:08:49.836Z,8.30
2022-10-18T04:11:46.687Z,8.10
2022-10-18T04:14:43.525Z,9.35
2022-10-18T04:17:40.367Z,9.23
2022-10-18T04:20:37.262Z,9.20
2022-10-18T04:23:37.890Z,8.68
2022-10-18T04:26:35.863Z,7.88
2022-10-18T04:29:33.388Z,7.68
2022-10-18T04:32:30.298Z,7.88
2022-10-18T04:35:28.313Z,8.10
2022-10-18T04:38:25.257Z,8.77
2022-10-18T04:41:22.516Z,7.28
2022-10-18T04:44:19.352Z,8.30
2022-10-18T04:47:17.279Z,7.47
2022-10-18T04:50:14.122Z,7.85
2022-10-18T04:53:10.971Z,7.35
2022-10-18T04:56:08.558Z,7.00
2022-10-18T04:59:05.469Z,7.13
2022-10-18T05:05:04.886Z,6.97
2022-10-18T05:08:01.769Z,7.88
2022-10-18T05:10:59.021Z,7.63
2022-10-18T05:13:56.055Z,7.53
2022-10-18T05:16:52.942Z,7.70
2022-10-18T05:19:49.806Z,6.85
2022-10-18T05:22:48.066Z,8.30
2022-10-18T05:25:45.066Z,8.60
2022-10-18T05:28:42.028Z,8.93
2022-10-18T05:31:39.211Z,7.55
2022-10-18T05:34:36.115Z,10.95
2022-10-18T05:37:33.383Z,9.43
2022-10-18T05:40:30.258Z,9.70
2022-10-18T05:43:30.149Z,9.68
2022-10-18T05:46:26.984Z,9.63
2022-10-18T05:49:24.062Z,9.85
2022-10-18T05:52:21.107Z,9.82
2022-10-18T05:55:17.968Z,10.05
2022-10-18T05:58:14.815Z,11.30
2022-10-18T06:01:11.741Z,12.52
2022-10-18T06:04:12.681Z,12.23
2022-10-18T06:07:12.848Z,10.38
2022-10-18T06:10:10.283Z,9.98
2022-10-18T06:13:07.218Z,9.85
2022-10-18T06:16:04.346Z,9.13
2022-10-18T06:19:01.286Z,7.40
2022-10-18T06:21:58.135Z,7.22
2022-10-18T06:24:57.206Z,7.72
2022-10-18T06:27:54.948Z,9.00
2022-10-18T06:30:51.814Z,5.60
2022-10-18T06:33:49.278Z,8.50
2022-10-18T06:36:46.168Z,6.97
2022-10-18T06:39:43.067Z,7.82
2022-10-18T06:42:40.393Z,6.82
2022-10-18T06:45:37.265Z,6.45
2022-10-18T06:48:39.512Z,6.82
2022-10-18T06:51:36.663Z,7.35
2022-10-18T06:54:33.942Z,7.18
2022-10-18T06:57:31.698Z,7.30
2022-10-18T07:00:28.606Z,7.78
2022-10-18T07:03:26.770Z,7.70
2022-10-18T07:06:24.291Z,7.63
2022-10-18T07:09:21.142Z,8.70
2022-10-18T07:12:18.025Z,24.08
2022-10-18T07:15:15.114Z,15.75
2022-10-18T07:18:11.983Z,8.88
2022-10-18T07:21:11.956Z,11.93
2022-10-18T07:24:08.812Z,14.18
2022-10-18T07:27:05.875Z,12.50
2022-10-18T07:30:03.650Z,12.80
2022-10-18T07:33:00.514Z,10.48
2022-10-18T07:36:08.685Z,12.13
2022-10-18T07:39:05.595Z,13.55
2022-10-18T07:42:02.476Z,11.98
2022-10-18T07:44:59.351Z,13.43
2022-10-18T07:47:57.249Z,13.63
2022-10-18T07:50:54.222Z,14.40
2022-10-18T07:53:51.679Z,16.42
2022-10-18T07:56:48.720Z,13.60
2022-10-18T07:59:48.031Z,13.18
2022-10-18T08:02:44.871Z,12.60
2022-10-18T08:05:41.748Z,15.18
2022-10-18T08:08:40.628Z,16.05
2022-10-18T08:11:37.496Z,13.98
2022-10-18T08:14:34.343Z,14.43
2022-10-18T08:17:31.593Z,13.95
2022-10-18T08:20:31.132Z,15.10
2022-10-18T08:23:28.224Z,14.23
2022-10-18T08:26:25.197Z,14.73
2022-10-18T08:29:24.999Z,14.65
2022-10-18T08:32:23.820Z,14.10
2022-10-18T08:35:20.780Z,12.80
2022-10-18T08:38:18.889Z,13.25
2022-10-18T08:41:36.790Z,11.45
2022-10-18T08:44:40.395Z,12.70
2022-10-18T08:47:44.807Z,15.88
2022-10-18T08:50:42.288Z,14.40
2022-10-18T08:53:58.592Z,15.75
2022-10-18T08:57:15.115Z,15.48
2022-10-18T09:00:20.726Z,12.43
2022-10-18T09:03:40.873Z,11.85
2022-10-18T09:07:19.222Z,14.43
2022-10-18T09:11:07.019Z,13.55
2022-10-18T09:14:36.564Z,13.13
2022-10-18T09:18:33.858Z,13.43
2022-10-18T09:21:53.933Z,13.63
2022-10-18T09:25:12.797Z,14.70
2022-10-18T09:28:33.771Z,14.27
2022-10-18T09:31:56.116Z,14.15
2022-10-18T09:34:59.806Z,15.00
2022-10-18T09:38:05.478Z,13.77
2022-10-18T09:41:18.306Z,14.70
2022-10-18T09:44:33.011Z,14.88
2022-10-18T09:47:46.448Z,14.20
2022-10-18T09:51:01.395Z,13.15
2022-10-18T09:54:43.948Z,16.17
2022-10-18T09:57:46.889Z,15.32
2022-10-18T10:00:49.684Z,19.83
2022-10-18T10:03:46.503Z,14.43
2022-10-18T10:06:55.276Z,13.90
2022-10-18T10:10:04.629Z,15.00
2022-10-18T10:13:06.528Z,15.85
2022-10-18T10:16:03.833Z,13.73
2022-10-18T10:19:01.405Z,17.77
2022-10-18T10:22:12.994Z,15.98
2022-10-18T10:25:35.745Z,17.20
2022-10-18T10:28:43.779Z,14.60
2022-10-18T10:31:40.684Z,15.18
2022-10-18T10:34:39.837Z,17.73
2022-10-18T10:37:39.530Z,16.67
2022-10-18T10:40:50.378Z,16.05
2022-10-18T10:43:48.335Z,14.63
2022-10-18T10:46:48.078Z,15.50
2022-10-18T10:49:47.551Z,14.93
2022-10-18T10:52:48.349Z,14.45
2022-10-18T10:55:46.236Z,15.45
2022-10-18T10:58:43.347Z,14.80
2022-10-18T11:01:41.662Z,15.65
2022-10-18T11:04:38.598Z,15.50
2022-10-18T11:07:45.466Z,14.05
2022-10-18T11:11:19.313Z,13.32
2022-10-18T11:14:29.454Z,13.75
2022-10-18T11:17:39.978Z,13.05
2022-10-18T11:21:08.074Z,13.50
2022-10-18T11:24:14.827Z,15.18
2022-10-18T11:27:34.074Z,12.57
2022-10-18T11:30:45.992Z,12.50
2022-10-18T11:34:08.596Z,12.18
2022-10-18T11:37:39.239Z,10.63
2022-10-18T11:40:50.517Z,11.82
2022-10-18T11:44:02.546Z,12.02
2022-10-18T11:47:26.710Z,11.65
2022-10-18T11:51:08.036Z,11.77
2022-10-18T11:55:12.498Z,11.10
2022-10-18T11:58:43.377Z,11.60
2022-10-18T12:05:22.460Z,11.57
2022-10-18T12:08:39.947Z,10.10
2022-10-18T12:11:47.433Z,9.82
2022-10-18T12:15:05.220Z,8.98
2022-10-18T12:18:14.906Z,9.35
2022-10-18T12:21:13.097Z,10.65
2022-10-18T12:24:19.996Z,9.50
2022-10-18T12:27:40.209Z,9.48
2022-10-18T12:31:28.073Z,9.38
2022-10-18T12:35:03.313Z,8.73
2022-10-18T12:38:25.252Z,9.07
2022-10-18T12:41:26.219Z,9.20
2022-10-18T12:44:35.261Z,8.40
2022-10-18T12:47:33.182Z,7.93
2022-10-18T12:50:41.546Z,8.30
2022-10-18T12:53:39.710Z,7.68
2022-10-18T12:56:41.862Z,7.68
2022-10-18T12:59:38.567Z,6.20
2022-10-18T13:02:35.822Z,6.72
2022-10-18T13:05:53.301Z,6.40
2022-10-18T13:09:18.454Z,5.97
2022-10-18T13:12:15.140Z,5.68
2022-10-18T13:16:00.616Z,5.68
2022-10-18T13:19:43.072Z,5.35
2022-10-18T13:23:36.999Z,4.03
2022-10-18T13:27:31.078Z,4.30
2022-10-18T13:31:00.006Z,4.18
2022-10-18T13:34:30.702Z,3.03
2022-10-18T13:37:30.029Z,3.47
2022-10-18T13:40:26.966Z,2.55
2022-10-18T13:44:11.102Z,1.88
2022-10-18T13:47:09.364Z,1.77
2022-10-18T13:50:34.914Z,1.85
2022-10-18T13:53:57.187Z,1.48
2022-10-18T13:57:24.317Z,1.83
2022-10-18T14:00:55.136Z,2.30
2022-10-18T14:07:18.777Z,1.80
2022-10-18T14:11:02.556Z,0.85
2022-10-18T14:14:29.945Z,0.88
2022-10-18T14:17:42.903Z,0.90
2022-10-18T14:21:08.610Z,1.33
2022-10-18T14:24:21.253Z,0.90
2022-10-18T14:27:33.003Z,1.00
2022-10-18T14:30:30.418Z,1.90
2022-10-18T14:33:50.872Z,0.73
2022-10-18T14:36:50.282Z,0.80
2022-10-18T14:39:47.132Z,6.53
2022-10-18T14:42:48.728Z,9.75
2022-10-18T14:45:46.128Z,19.40
2022-10-18T14:48:51.152Z,0.88
2022-10-18T14:51:53.744Z,2.22
2022-10-18T14:54:50.802Z,18.95
2022-10-18T14:57:47.749Z,12.43
2022-10-18T15:00:48.552Z,4.75
2022-10-18T15:03:46.424Z,3.08
2022-10-18T15:06:44.773Z,4.43
2022-10-18T15:09:42.315Z,78.35
2022-10-18T15:13:08.299Z,29.35
2022-10-18T15:15:59.201Z,12.32
2022-10-18T15:19:26.474Z,1.02
2022-10-18T15:22:32.566Z,0.63
2022-10-18T15:25:35.849Z,12.73
2022-10-18T15:28:39.929Z,3.22
2022-10-18T15:31:43.006Z,3.50
2022-10-18T15:34:40.120Z,4.03
2022-10-18T15:37:44.827Z,0.60
2022-10-18T15:40:43.278Z,5.45
2022-10-18T15:43:40.225Z,1.23
2022-10-18T15:46:40.018Z,4.10
2022-10-18T15:49:46.185Z,1.03
2022-10-18T15:52:43.690Z,0.70
2022-10-18T15:56:00.665Z,0.80
2022-10-18T15:59:00.768Z,19.67
2022-10-18T16:02:00.167Z,91.55
2022-10-18T16:05:05.000Z,26.00
2022-10-18T16:08:01.914Z,9.88
2022-10-18T16:10:59.946Z,2.40
2022-10-18T16:13:59.585Z,58.58
2022-10-18T16:20:00.138Z,54.50
2022-10-18T16:22:57.192Z,78.88
2022-10-18T16:25:54.431Z,109.22
2022-10-18T16:28:55.632Z,23.50
2022-10-18T16:31:55.280Z,16.92
2022-10-18T16:34:55.139Z,28.98
2022-10-18T16:37:52.102Z,15.27
2022-10-18T16:40:49.187Z,19.15
2022-10-18T16:43:48.544Z,27.55
2022-10-18T16:46:50.947Z,55.00
2022-10-18T16:49:50.732Z,191.75
2022-10-18T16:52:47.731Z,100.97
2022-10-18T16:55:44.694Z,36.40
2022-10-18T16:58:42.005Z,48.78
2022-10-18T17:01:39.116Z,71.38
2022-10-18T17:04:36.079Z,43.20
2022-10-18T17:07:32.914Z,20.38
2022-10-18T17:10:29.891Z,48.60
2022-10-18T17:13:26.972Z,23.00
2022-10-18T17:16:33.552Z,57.35
2022-10-18T17:19:30.480Z,31.83
2022-10-18T17:22:27.366Z,44.55
2022-10-18T17:25:24.249Z,47.75
2022-10-18T17:28:21.673Z,34.60
2022-10-18T17:31:18.619Z,30.85
2022-10-18T17:34:21.223Z,28.80
2022-10-18T17:37:18.551Z,17.52
2022-10-18T17:40:15.717Z,12.80
2022-10-18T17:43:13.787Z,18.02
2022-10-18T17:46:14.180Z,13.05
2022-10-18T17:49:11.133Z,18.05
2022-10-18T17:52:08.002Z,14.38
2022-10-18T17:55:05.212Z,23.92
2022-10-18T17:58:02.292Z,21.90
2022-10-18T18:01:13.854Z,18.52
2022-10-18T18:04:10.711Z,9.15
2022-10-18T18:07:07.609Z,11.98
2022-10-18T18:10:05.369Z,18.20
2022-10-18T18:13:02.891Z,16.30
2022-10-18T18:16:14.882Z,16.38
2022-10-18T18:19:12.783Z,15.57
2022-10-18T18:22:10.439Z,12.48
2022-10-18T18:25:09.094Z,6.72
2022-10-18T18:28:07.570Z,4.10
2022-10-18T18:31:11.465Z,3.58
2022-10-18T18:34:09.921Z,4.75
2022-10-18T18:37:07.890Z,10.48
2022-10-18T18:40:05.226Z,7.22
2022-10-18T18:43:12.612Z,3.55
2022-10-18T18:46:19.033Z,9.68
2022-10-18T18:49:15.916Z,12.57
2022-10-18T18:52:12.763Z,7.90
2022-10-18T18:55:09.859Z,10.35
2022-10-18T18:58:06.734Z,13.00
2022-10-18T19:01:19.016Z,10.63
2022-10-18T19:04:16.945Z,11.25
2022-10-18T19:07:13.838Z,9.38
2022-10-18T19:10:10.665Z,12.32
2022-10-18T19:13:07.508Z,13.85
2022-10-18T19:16:41.318Z,16.20
2022-10-18T19:19:40.805Z,6.68
2022-10-18T19:22:38.535Z,6.07
2022-10-18T19:25:35.364Z,8.68
2022-10-18T19:28:32.199Z,8.65
2022-10-18T19:31:29.192Z,7.85
2022-10-18T19:34:28.564Z,7.88
2022-10-18T19:37:25.538Z,8.18
2022-10-18T19:40:22.333Z,7.57
2022-10-18T19:43:19.151Z,7.30
2022-10-18T19:46:16.179Z,7.40
2022-10-18T19:49:13.391Z,6.60
2022-10-18T19:52:12.240Z,13.40
2022-10-18T19:55:09.172Z,9.98
2022-10-18T19:58:06.061Z,9.50
2022-10-18T20:01:03.036Z,7.20
2022-10-18T20:03:59.962Z,6.15
2022-10-18T20:06:56.811Z,7.22
2022-10-18T20:09:53.697Z,5.50
2022-10-18T20:12:50.530Z,4.20
2022-10-18T20:15:50.166Z,5.78
2022-10-18T20:18:47.012Z,5.20
2022-10-18T20:21:43.920Z,4.97
2022-10-18T20:24:40.753Z,4.10
2022-10-18T20:27:37.673Z,3.88
2022-10-18T20:30:35.029Z,4.57
2022-10-18T20:33:33.281Z,5.38
2022-10-18T20:36:31.843Z,3.92
2022-10-18T20:39:28.687Z,4.50
2022-10-18T20:42:25.585Z,5.20
2022-10-18T20:45:23.411Z,6.35
2022-10-18T20:48:20.232Z,5.30
2022-10-18T20:51:17.833Z,6.13
2022-10-18T20:54:14.763Z,3.58
2022-10-18T20:57:11.594Z,3.30
2022-10-18T21:00:11.538Z,3.50
2022-10-18T21:03:08.428Z,4.53
2022-10-18T21:06:27.389Z,4.78
2022-10-18T21:09:24.357Z,4.93
2022-10-18T21:12:21.223Z,5.28
2022-10-18T21:15:19.925Z,5.65
2022-10-18T21:18:16.752Z,4.60
2022-10-18T21:21:20.190Z,5.57
2022-10-18T21:24:19.545Z,5.20
2022-10-18T21:27:16.394Z,4.97
2022-10-18T21:30:13.317Z,5.05
2022-10-18T21:33:10.207Z,4.50
2022-10-18T21:36:08.402Z,4.75
2022-10-18T21:39:08.525Z,4.28
2022-10-18T21:42:05.443Z,3.85
2022-10-18T21:45:02.376Z,4.05
2022-10-18T21:47:59.188Z,4.82
2022-10-18T21:50:56.159Z,4.75
2022-10-18T21:53:55.907Z,4.05
2022-10-18T21:56:52.759Z,4.32
2022-10-18T21:59:49.606Z,3.60
2022-10-18T22:02:46.433Z,3.75
2022-10-18T22:05:43.256Z,4.22
2022-10-18T22:08:49.369Z,4.40
2022-10-18T22:11:51.669Z,4.38
2022-10-18T22:14:48.663Z,3.60
2022-10-18T22:17:45.543Z,3.63
2022-10-18T22:20:42.475Z,3.50
2022-10-18T22:23:45.951Z,3.28
2022-10-18T22:26:44.883Z,3.58
2022-10-18T22:29:41.794Z,3.90
2022-10-18T22:32:40.992Z,4.35
2022-10-18T22:35:37.819Z,4.57
2022-10-18T22:38:35.694Z,4.60
2022-10-18T22:41:33.695Z,4.32
2022-10-18T22:44:30.597Z,4.30
2022-10-18T22:47:27.414Z,4.22
2022-10-18T22:50:24.330Z,5.32
2022-10-18T22:53:21.250Z,5.68
2022-10-18T22:56:20.837Z,4.90
2022-10-18T22:59:17.734Z,5.00
2022-10-18T23:02:14.563Z,5.35
2022-10-18T23:05:11.450Z,4.80
2022-10-18T23:08:10.820Z,4.40
2022-10-18T23:11:07.660Z,4.57
2022-10-18T23:14:06.735Z,4.60
2022-10-18T23:17:03.554Z,4.63
2022-10-18T23:20:00.398Z,4.90
2022-10-18T23:22:57.299Z,4.72
2022-10-18T23:25:54.527Z,4.72
2022-10-18T23:28:53.298Z,5.13
2022-10-18T23:31:50.354Z,4.75
2022-10-18T23:34:47.195Z,4.85
2022-10-18T23:37:44.078Z,4.82
2022-10-18T23:40:41.547Z,5.00
2022-10-18T23:43:38.524Z,4.38
2022-10-18T23:46:35.331Z,4.60
2022-10-18T23:49:32.222Z,4.00
2022-10-18T23:52:29.058Z,4.57
2022-10-18T23:55:25.965Z,5.00
2022-10-18T23:58:23.820Z,5.30
